sensor_id;sensor_type;location;lat;lon;timestamp;P1;durP1;ratioP1;P2;durP2;ratioP2
81841;SDS011;71284;50.918;7.092;2023-10-09T00:00:54;15.10;;;9.20;;
81841;SDS011;71284;50.918;7.092;2023-10-09T00:03:21;14.00;;;9.47;;
81841;SDS011;71284;50.918;7.092;2023-10-09T00:05:48;16.70;;;7.50;;
81841;SDS011;71284;50.918;7.092;2023-10-09T00:08:15;22.80;;;9.80;;
81841;SDS011;71284;50.918;7.092;2023-10-09T00:10:42;19.50;;;8.10;;
81841;SDS011;71284;50.918;7.092;2023-10-09T00:13:11;19.63;;;9.30;;
81841;SDS011;71284;50.918;7.092;2023-10-09T00:15:38;17.37;;;8.07;;
81841;SDS011;71284;50.918;7.092;2023-10-09T00:18:04;16.40;;;8.77;;
81841;SDS011;71284;50.918;7.092;2023-10-09T00:20:35;12.07;;;8.30;;
81841;SDS011;71284;50.918;7.092;2023-10-09T00:22:58;12.40;;;9.53;;
81841;SDS011;71284;50.918;7.092;2023-10-09T00:25:24;11.53;;;8.60;;
81841;SDS011;71284;50.918;7.092;2023-10-09T00:27:51;13.23;;;9.17;;
81841;SDS011;71284;50.918;7.092;2023-10-09T00:30:17;18.33;;;9.70;;
81841;SDS011;71284;50.918;7.092;2023-10-09T00:32:44;21.60;;;8.93;;
81841;SDS011;71284;50.918;7.092;2023-10-09T00:35:21;19.33;;;8.90;;
81841;SDS011;71284;50.918;7.092;2023-10-09T00:38:04;9.87;;;7.10;;
81841;SDS011;71284;50.918;7.092;2023-10-09T00:40:48;15.80;;;8.70;;
81841;SDS011;71284;50.918;7.092;2023-10-09T00:43:14;10.70;;;8.30;;
81841;SDS011;71284;50.918;7.092;2023-10-09T00:45:42;13.90;;;8.33;;
81841;SDS011;71284;50.918;7.092;2023-10-09T00:48:08;12.53;;;8.07;;
81841;SDS011;71284;50.918;7.092;2023-10-09T00:50:34;12.63;;;8.30;;
81841;SDS011;71284;50.918;7.092;2023-10-09T00:53:02;13.50;;;8.00;;
81841;SDS011;71284;50.918;7.092;2023-10-09T00:55:31;15.83;;;6.70;;
81841;SDS011;71284;50.918;7.092;2023-10-09T00:58:00;17.33;;;8.57;;
81841;SDS011;71284;50.918;7.092;2023-10-09T01:00:27;20.13;;;8.87;;
81841;SDS011;71284;50.918;7.092;2023-10-09T01:03:00;20.30;;;8.37;;
81841;SDS011;71284;50.918;7.092;2023-10-09T01:05:32;13.63;;;8.30;;
81841;SDS011;71284;50.918;7.092;2023-10-09T01:07:59;17.40;;;8.83;;
81841;SDS011;71284;50.918;7.092;2023-10-09T01:10:25;22.23;;;9.30;;
81841;SDS011;71284;50.918;7.092;2023-10-09T01:12:52;12.73;;;7.33;;
81841;SDS011;71284;50.918;7.092;2023-10-09T01:15:19;15.50;;;8.97;;
81841;SDS011;71284;50.918;7.092;2023-10-09T01:17:45;14.67;;;8.37;;
81841;SDS011;71284;50.918;7.092;2023-10-09T01:20:12;10.53;;;7.10;;
81841;SDS011;71284;50.918;7.092;2023-10-09T01:22:38;13.73;;;8.03;;
81841;SDS011;71284;50.918;7.092;2023-10-09T01:25:05;15.23;;;8.10;;
81841;SDS011;71284;50.918;7.092;2023-10-09T01:27:32;10.80;;;7.37;;
81841;SDS011;71284;50.918;7.092;2023-10-09T01:29:58;10.13;;;6.20;;
81841;SDS011;71284;50.918;7.092;2023-10-09T01:32:25;14.60;;;7.27;;
81841;SDS011;71284;50.918;7.092;2023-10-09T01:34:52;13.80;;;7.20;;
81841;SDS011;71284;50.918;7.092;2023-10-09T01:37:19;13.53;;;7.70;;
81841;SDS011;71284;50.918;7.092;2023-10-09T01:39:45;13.70;;;7.20;;
81841;SDS011;71284;50.918;7.092;2023-10-09T01:42:11;11.10;;;7.27;;
81841;SDS011;71284;50.918;7.092;2023-10-09T01:44:38;9.67;;;6.33;;
81841;SDS011;71284;50.918;7.092;2023-10-09T01:47:04;10.03;;;6.80;;
81841;SDS011;71284;50.918;7.092;2023-10-09T01:49:31;14.83;;;6.90;;
81841;SDS011;71284;50.918;7.092;2023-10-09T01:51:58;12.63;;;7.83;;
81841;SDS011;71284;50.918;7.092;2023-10-09T01:54:26;11.57;;;7.50;;
81841;SDS011;71284;50.918;7.092;2023-10-09T01:57:02;14.93;;;6.07;;
81841;SDS011;71284;50.918;7.092;2023-10-09T01:59:29;6.97;;;6.27;;
81841;SDS011;71284;50.918;7.092;2023-10-09T02:01:55;10.03;;;6.07;;
81841;SDS011;71284;50.918;7.092;2023-10-09T02:04:22;10.93;;;6.00;;
81841;SDS011;71284;50.918;7.092;2023-10-09T02:06:48;13.00;;;6.57;;
81841;SDS011;71284;50.918;7.092;2023-10-09T02:09:15;13.67;;;5.90;;
81841;SDS011;71284;50.918;7.092;2023-10-09T02:11:42;13.20;;;7.77;;
81841;SDS011;71284;50.918;7.092;2023-10-09T02:14:08;13.40;;;7.70;;
81841;SDS011;71284;50.918;7.092;2023-10-09T02:16:40;10.23;;;5.70;;
81841;SDS011;71284;50.918;7.092;2023-10-09T02:19:07;7.60;;;6.00;;
81841;SDS011;71284;50.918;7.092;2023-10-09T02:21:34;14.43;;;6.23;;
81841;SDS011;71284;50.918;7.092;2023-10-09T02:24:06;8.63;;;5.93;;
81841;SDS011;71284;50.918;7.092;2023-10-09T02:26:33;15.00;;;6.70;;
81841;SDS011;71284;50.918;7.092;2023-10-09T02:29:18;17.63;;;7.03;;
81841;SDS011;71284;50.918;7.092;2023-10-09T02:31:45;12.33;;;6.37;;
81841;SDS011;71284;50.918;7.092;2023-10-09T02:34:12;12.00;;;6.10;;
81841;SDS011;71284;50.918;7.092;2023-10-09T02:36:39;12.00;;;5.27;;
81841;SDS011;71284;50.918;7.092;2023-10-09T02:39:08;10.53;;;6.33;;
81841;SDS011;71284;50.918;7.092;2023-10-09T02:41:34;10.03;;;6.50;;
81841;SDS011;71284;50.918;7.092;2023-10-09T02:44:00;12.23;;;6.97;;
81841;SDS011;71284;50.918;7.092;2023-10-09T02:46:27;9.00;;;5.20;;
81841;SDS011;71284;50.918;7.092;2023-10-09T02:48:55;13.00;;;6.73;;
81841;SDS011;71284;50.918;7.092;2023-10-09T02:51:22;12.27;;;6.40;;
81841;SDS011;71284;50.918;7.092;2023-10-09T02:54:03;10.03;;;6.17;;
81841;SDS011;71284;50.918;7.092;2023-10-09T02:56:34;12.53;;;5.47;;
81841;SDS011;71284;50.918;7.092;2023-10-09T02:59:03;14.13;;;6.47;;
81841;SDS011;71284;50.918;7.092;2023-10-09T03:01:34;13.13;;;7.00;;
81841;SDS011;71284;50.918;7.092;2023-10-09T03:04:01;9.80;;;5.93;;
81841;SDS011;71284;50.918;7.092;2023-10-09T03:06:28;12.70;;;6.07;;
81841;SDS011;71284;50.918;7.092;2023-10-09T03:08:54;10.67;;;5.83;;
81841;SDS011;71284;50.918;7.092;2023-10-09T03:11:21;12.00;;;6.30;;
81841;SDS011;71284;50.918;7.092;2023-10-09T03:13:47;8.03;;;6.77;;
81841;SDS011;71284;50.918;7.092;2023-10-09T03:16:14;11.47;;;6.30;;
81841;SDS011;71284;50.918;7.092;2023-10-09T03:18:50;9.50;;;6.10;;
81841;SDS011;71284;50.918;7.092;2023-10-09T03:21:15;13.17;;;5.63;;
81841;SDS011;71284;50.918;7.092;2023-10-09T03:23:43;14.00;;;6.40;;
81841;SDS011;71284;50.918;7.092;2023-10-09T03:26:09;11.53;;;5.90;;
81841;SDS011;71284;50.918;7.092;2023-10-09T03:28:35;13.97;;;6.40;;
81841;SDS011;71284;50.918;7.092;2023-10-09T03:31:02;11.50;;;6.20;;
81841;SDS011;71284;50.918;7.092;2023-10-09T03:33:29;8.23;;;5.27;;
81841;SDS011;71284;50.918;7.092;2023-10-09T03:35:56;7.67;;;5.37;;
81841;SDS011;71284;50.918;7.092;2023-10-09T03:38:22;6.60;;;5.20;;
81841;SDS011;71284;50.918;7.092;2023-10-09T03:40:49;18.03;;;5.90;;
81841;SDS011;71284;50.918;7.092;2023-10-09T03:43:16;8.40;;;5.80;;
81841;SDS011;71284;50.918;7.092;2023-10-09T03:45:42;10.23;;;6.47;;
81841;SDS011;71284;50.918;7.092;2023-10-09T03:48:12;9.37;;;5.43;;
81841;SDS011;71284;50.918;7.092;2023-10-09T03:50:41;6.67;;;5.20;;
81841;SDS011;71284;50.918;7.092;2023-10-09T03:53:07;8.93;;;5.57;;
81841;SDS011;71284;50.918;7.092;2023-10-09T03:55:35;8.13;;;5.00;;
81841;SDS011;71284;50.918;7.092;2023-10-09T03:58:01;8.57;;;4.63;;
81841;SDS011;71284;50.918;7.092;2023-10-09T04:00:28;9.93;;;5.83;;
81841;SDS011;71284;50.918;7.092;2023-10-09T04:02:56;8.93;;;5.00;;
81841;SDS011;71284;50.918;7.092;2023-10-09T04:05:23;7.37;;;5.23;;
81841;SDS011;71284;50.918;7.092;2023-10-09T04:07:49;7.83;;;4.67;;
81841;SDS011;71284;50.918;7.092;2023-10-09T04:10:15;14.70;;;5.70;;
81841;SDS011;71284;50.918;7.092;2023-10-09T04:12:47;10.87;;;5.33;;
81841;SDS011;71284;50.918;7.092;2023-10-09T04:15:14;8.53;;;4.50;;
81841;SDS011;71284;50.918;7.092;2023-10-09T04:17:41;11.37;;;5.80;;
81841;SDS011;71284;50.918;7.092;2023-10-09T04:20:07;7.73;;;5.13;;
81841;SDS011;71284;50.918;7.092;2023-10-09T04:22:40;24.93;;;6.47;;
81841;SDS011;71284;50.918;7.092;2023-10-09T04:25:09;7.00;;;5.57;;
81841;SDS011;71284;50.918;7.092;2023-10-09T04:27:36;8.50;;;5.07;;
81841;SDS011;71284;50.918;7.092;2023-10-09T04:30:03;7.73;;;6.10;;
81841;SDS011;71284;50.918;7.092;2023-10-09T04:32:30;15.97;;;6.20;;
81841;SDS011;71284;50.918;7.092;2023-10-09T04:34:56;11.80;;;5.43;;
81841;SDS011;71284;50.918;7.092;2023-10-09T04:37:23;12.60;;;6.60;;
81841;SDS011;71284;50.918;7.092;2023-10-09T04:39:50;9.23;;;6.27;;
81841;SDS011;71284;50.918;7.092;2023-10-09T04:42:16;10.90;;;7.23;;
81841;SDS011;71284;50.918;7.092;2023-10-09T04:44:45;8.97;;;6.27;;
81841;SDS011;71284;50.918;7.092;2023-10-09T04:47:18;9.67;;;5.80;;
81841;SDS011;71284;50.918;7.092;2023-10-09T04:49:44;8.33;;;5.87;;
81841;SDS011;71284;50.918;7.092;2023-10-09T04:52:29;17.33;;;5.77;;
81841;SDS011;71284;50.918;7.092;2023-10-09T04:55:10;9.47;;;6.20;;
81841;SDS011;71284;50.918;7.092;2023-10-09T04:57:44;11.20;;;6.50;;
81841;SDS011;71284;50.918;7.092;2023-10-09T05:00:14;8.20;;;5.20;;
81841;SDS011;71284;50.918;7.092;2023-10-09T05:02:46;7.80;;;6.00;;
81841;SDS011;71284;50.918;7.092;2023-10-09T05:05:13;7.53;;;5.73;;
81841;SDS011;71284;50.918;7.092;2023-10-09T05:07:41;18.67;;;7.63;;
81841;SDS011;71284;50.918;7.092;2023-10-09T05:10:13;11.17;;;5.73;;
81841;SDS011;71284;50.918;7.092;2023-10-09T05:12:41;9.47;;;5.83;;
81841;SDS011;71284;50.918;7.092;2023-10-09T05:15:08;7.70;;;5.33;;
81841;SDS011;71284;50.918;7.092;2023-10-09T05:17:35;9.57;;;5.80;;
81841;SDS011;71284;50.918;7.092;2023-10-09T05:20:02;9.13;;;5.57;;
81841;SDS011;71284;50.918;7.092;2023-10-09T05:22:33;10.10;;;5.23;;
81841;SDS011;71284;50.918;7.092;2023-10-09T05:25:02;12.10;;;6.00;;
81841;SDS011;71284;50.918;7.092;2023-10-09T05:27:28;14.53;;;5.87;;
81841;SDS011;71284;50.918;7.092;2023-10-09T05:30:11;7.30;;;5.87;;
81841;SDS011;71284;50.918;7.092;2023-10-09T05:32:54;9.13;;;5.53;;
81841;SDS011;71284;50.918;7.092;2023-10-09T05:35:25;23.20;;;7.07;;
81841;SDS011;71284;50.918;7.092;2023-10-09T05:37:56;13.60;;;5.50;;
81841;SDS011;71284;50.918;7.092;2023-10-09T05:40:33;10.23;;;6.10;;
81841;SDS011;71284;50.918;7.092;2023-10-09T05:42:59;10.20;;;5.93;;
81841;SDS011;71284;50.918;7.092;2023-10-09T05:45:26;8.37;;;5.77;;
81841;SDS011;71284;50.918;7.092;2023-10-09T05:48:10;10.33;;;5.50;;
81841;SDS011;71284;50.918;7.092;2023-10-09T05:50:53;11.13;;;5.80;;
81841;SDS011;71284;50.918;7.092;2023-10-09T05:53:34;10.77;;;5.57;;
81841;SDS011;71284;50.918;7.092;2023-10-09T05:56:08;8.23;;;5.20;;
81841;SDS011;71284;50.918;7.092;2023-10-09T05:58:41;9.23;;;5.53;;
81841;SDS011;71284;50.918;7.092;2023-10-09T06:01:08;9.37;;;5.97;;
81841;SDS011;71284;50.918;7.092;2023-10-09T06:03:40;8.70;;;5.43;;
81841;SDS011;71284;50.918;7.092;2023-10-09T06:06:13;7.23;;;5.13;;
81841;SDS011;71284;50.918;7.092;2023-10-09T06:08:40;11.13;;;5.73;;
81841;SDS011;71284;50.918;7.092;2023-10-09T06:11:16;7.87;;;5.20;;
81841;SDS011;71284;50.918;7.092;2023-10-09T06:13:48;10.70;;;4.97;;
81841;SDS011;71284;50.918;7.092;2023-10-09T06:16:15;9.10;;;5.67;;
81841;SDS011;71284;50.918;7.092;2023-10-09T06:18:46;8.40;;;4.73;;
81841;SDS011;71284;50.918;7.092;2023-10-09T06:21:12;9.33;;;5.23;;
81841;SDS011;71284;50.918;7.092;2023-10-09T06:23:55;7.93;;;5.70;;
81841;SDS011;71284;50.918;7.092;2023-10-09T06:26:23;5.73;;;4.30;;
81841;SDS011;71284;50.918;7.092;2023-10-09T06:28:49;6.80;;;5.33;;
81841;SDS011;71284;50.918;7.092;2023-10-09T06:31:16;8.30;;;6.10;;
81841;SDS011;71284;50.918;7.092;2023-10-09T06:33:45;9.40;;;5.50;;
81841;SDS011;71284;50.918;7.092;2023-10-09T06:36:12;7.07;;;4.80;;
81841;SDS011;71284;50.918;7.092;2023-10-09T06:38:38;7.67;;;5.10;;
81841;SDS011;71284;50.918;7.092;2023-10-09T06:41:07;13.50;;;6.80;;
81841;SDS011;71284;50.918;7.092;2023-10-09T06:43:44;8.37;;;5.63;;
81841;SDS011;71284;50.918;7.092;2023-10-09T06:46:14;6.60;;;4.90;;
81841;SDS011;71284;50.918;7.092;2023-10-09T06:48:42;11.60;;;5.03;;
81841;SDS011;71284;50.918;7.092;2023-10-09T06:51:10;7.77;;;5.00;;
81841;SDS011;71284;50.918;7.092;2023-10-09T06:53:57;6.40;;;4.53;;
81841;SDS011;71284;50.918;7.092;2023-10-09T06:56:24;5.60;;;4.40;;
81841;SDS011;71284;50.918;7.092;2023-10-09T06:59:05;10.23;;;5.97;;
81841;SDS011;71284;50.918;7.092;2023-10-09T07:01:38;5.83;;;5.30;;
81841;SDS011;71284;50.918;7.092;2023-10-09T07:04:05;6.33;;;4.47;;
81841;SDS011;71284;50.918;7.092;2023-10-09T07:06:37;11.93;;;5.10;;
81841;SDS011;71284;50.918;7.092;2023-10-09T07:09:18;7.60;;;5.20;;
81841;SDS011;71284;50.918;7.092;2023-10-09T07:11:45;8.63;;;4.57;;
81841;SDS011;71284;50.918;7.092;2023-10-09T07:14:14;13.80;;;6.50;;
81841;SDS011;71284;50.918;7.092;2023-10-09T07:16:44;9.60;;;5.20;;
81841;SDS011;71284;50.918;7.092;2023-10-09T07:19:16;5.30;;;4.80;;
81841;SDS011;71284;50.918;7.092;2023-10-09T07:21:47;8.50;;;6.17;;
81841;SDS011;71284;50.918;7.092;2023-10-09T07:24:14;6.53;;;5.53;;
81841;SDS011;71284;50.918;7.092;2023-10-09T07:26:40;9.27;;;5.17;;
81841;SDS011;71284;50.918;7.092;2023-10-09T07:29:07;12.17;;;5.40;;
81841;SDS011;71284;50.918;7.092;2023-10-09T07:31:37;10.50;;;5.00;;
81841;SDS011;71284;50.918;7.092;2023-10-09T07:34:05;14.40;;;5.80;;
81841;SDS011;71284;50.918;7.092;2023-10-09T07:36:32;8.77;;;6.00;;
81841;SDS011;71284;50.918;7.092;2023-10-09T07:39:01;16.83;;;5.50;;
81841;SDS011;71284;50.918;7.092;2023-10-09T07:41:29;7.30;;;5.50;;
81841;SDS011;71284;50.918;7.092;2023-10-09T07:44:00;6.73;;;5.33;;
81841;SDS011;71284;50.918;7.092;2023-10-09T07:46:27;8.90;;;4.90;;
81841;SDS011;71284;50.918;7.092;2023-10-09T07:48:56;7.00;;;5.10;;
81841;SDS011;71284;50.918;7.092;2023-10-09T07:51:23;8.53;;;4.63;;
81841;SDS011;71284;50.918;7.092;2023-10-09T07:53:50;13.70;;;5.33;;
81841;SDS011;71284;50.918;7.092;2023-10-09T07:56:16;6.97;;;5.13;;
81841;SDS011;71284;50.918;7.092;2023-10-09T07:58:43;7.87;;;5.73;;
81841;SDS011;71284;50.918;7.092;2023-10-09T08:01:12;4.97;;;4.57;;
81841;SDS011;71284;50.918;7.092;2023-10-09T08:03:42;7.37;;;5.70;;
81841;SDS011;71284;50.918;7.092;2023-10-09T08:06:08;5.93;;;4.77;;
81841;SDS011;71284;50.918;7.092;2023-10-09T08:08:50;8.67;;;5.30;;
81841;SDS011;71284;50.918;7.092;2023-10-09T08:11:35;11.97;;;6.17;;
81841;SDS011;71284;50.918;7.092;2023-10-09T08:14:20;9.43;;;4.83;;
81841;SDS011;71284;50.918;7.092;2023-10-09T08:16:53;8.90;;;5.53;;
81841;SDS011;71284;50.918;7.092;2023-10-09T08:19:19;8.43;;;5.80;;
81841;SDS011;71284;50.918;7.092;2023-10-09T08:21:51;9.70;;;5.47;;
81841;SDS011;71284;50.918;7.092;2023-10-09T08:24:37;10.30;;;5.43;;
81841;SDS011;71284;50.918;7.092;2023-10-09T08:27:08;5.80;;;5.23;;
81841;SDS011;71284;50.918;7.092;2023-10-09T08:29:39;5.17;;;4.60;;
81841;SDS011;71284;50.918;7.092;2023-10-09T08:32:06;10.40;;;6.00;;
81841;SDS011;71284;50.918;7.092;2023-10-09T08:34:32;9.90;;;5.53;;
81841;SDS011;71284;50.918;7.092;2023-10-09T08:36:59;9.00;;;4.93;;
81841;SDS011;71284;50.918;7.092;2023-10-09T08:39:25;12.47;;;5.43;;
81841;SDS011;71284;50.918;7.092;2023-10-09T08:41:52;13.20;;;6.10;;
81841;SDS011;71284;50.918;7.092;2023-10-09T08:44:20;8.80;;;5.50;;
81841;SDS011;71284;50.918;7.092;2023-10-09T08:46:49;8.03;;;5.50;;
81841;SDS011;71284;50.918;7.092;2023-10-09T08:49:16;10.80;;;5.57;;
81841;SDS011;71284;50.918;7.092;2023-10-09T08:51:42;7.60;;;5.10;;
81841;SDS011;71284;50.918;7.092;2023-10-09T08:54:08;8.87;;;5.87;;
81841;SDS011;71284;50.918;7.092;2023-10-09T08:56:35;8.47;;;5.23;;
81841;SDS011;71284;50.918;7.092;2023-10-09T08:59:02;8.10;;;6.10;;
81841;SDS011;71284;50.918;7.092;2023-10-09T09:01:28;8.43;;;5.73;;
81841;SDS011;71284;50.918;7.092;2023-10-09T09:03:55;8.80;;;4.90;;
81841;SDS011;71284;50.918;7.092;2023-10-09T09:06:21;8.77;;;5.23;;
81841;SDS011;71284;50.918;7.092;2023-10-09T09:08:48;11.87;;;5.70;;
81841;SDS011;71284;50.918;7.092;2023-10-09T09:11:15;11.73;;;5.20;;
81841;SDS011;71284;50.918;7.092;2023-10-09T09:13:42;12.13;;;5.27;;
81841;SDS011;71284;50.918;7.092;2023-10-09T09:16:23;11.03;;;6.20;;
81841;SDS011;71284;50.918;7.092;2023-10-09T09:18:53;12.57;;;6.90;;
81841;SDS011;71284;50.918;7.092;2023-10-09T09:21:34;9.40;;;5.37;;
81841;SDS011;71284;50.918;7.092;2023-10-09T09:24:04;15.40;;;5.47;;
81841;SDS011;71284;50.918;7.092;2023-10-09T09:26:33;12.80;;;5.10;;
81841;SDS011;71284;50.918;7.092;2023-10-09T09:28:59;12.43;;;5.57;;
81841;SDS011;71284;50.918;7.092;2023-10-09T09:31:25;11.60;;;5.37;;
81841;SDS011;71284;50.918;7.092;2023-10-09T09:33:56;4.73;;;4.23;;
81841;SDS011;71284;50.918;7.092;2023-10-09T09:36:25;9.37;;;4.10;;
81841;SDS011;71284;50.918;7.092;2023-10-09T09:38:51;6.93;;;4.37;;
81841;SDS011;71284;50.918;7.092;2023-10-09T09:41:18;5.73;;;4.23;;
81841;SDS011;71284;50.918;7.092;2023-10-09T09:43:51;5.67;;;5.17;;
81841;SDS011;71284;50.918;7.092;2023-10-09T09:46:19;6.77;;;3.80;;
81841;SDS011;71284;50.918;7.092;2023-10-09T09:48:46;10.63;;;4.60;;
81841;SDS011;71284;50.918;7.092;2023-10-09T09:51:12;11.10;;;5.07;;
81841;SDS011;71284;50.918;7.092;2023-10-09T09:53:39;7.60;;;3.93;;
81841;SDS011;71284;50.918;7.092;2023-10-09T09:56:06;4.83;;;4.33;;
81841;SDS011;71284;50.918;7.092;2023-10-09T09:58:32;4.97;;;3.80;;
81841;SDS011;71284;50.918;7.092;2023-10-09T10:01:01;9.67;;;5.07;;
81841;SDS011;71284;50.918;7.092;2023-10-09T10:03:30;8.47;;;4.77;;
81841;SDS011;71284;50.918;7.092;2023-10-09T10:05:54;11.33;;;4.40;;
81841;SDS011;71284;50.918;7.092;2023-10-09T10:08:20;9.27;;;5.00;;
81841;SDS011;71284;50.918;7.092;2023-10-09T10:10:47;10.50;;;4.30;;
81841;SDS011;71284;50.918;7.092;2023-10-09T10:13:13;16.77;;;4.50;;
81841;SDS011;71284;50.918;7.092;2023-10-09T10:18:18;6.50;;;4.30;;
81841;SDS011;71284;50.918;7.092;2023-10-09T10:21:09;13.10;;;5.70;;
81841;SDS011;71284;50.918;7.092;2023-10-09T10:23:44;10.87;;;4.60;;
81841;SDS011;71284;50.918;7.092;2023-10-09T10:26:17;7.40;;;3.73;;
81841;SDS011;71284;50.918;7.092;2023-10-09T10:28:43;9.33;;;4.40;;
81841;SDS011;71284;50.918;7.092;2023-10-09T10:31:09;7.27;;;4.60;;
81841;SDS011;71284;50.918;7.092;2023-10-09T10:36:24;11.07;;;4.90;;
81841;SDS011;71284;50.918;7.092;2023-10-09T10:39:06;7.20;;;5.07;;
81841;SDS011;71284;50.918;7.092;2023-10-09T10:41:36;9.33;;;4.57;;
81841;SDS011;71284;50.918;7.092;2023-10-09T10:44:03;8.27;;;5.30;;
81841;SDS011;71284;50.918;7.092;2023-10-09T10:46:40;4.83;;;4.10;;
81841;SDS011;71284;50.918;7.092;2023-10-09T10:49:05;7.40;;;4.27;;
81841;SDS011;71284;50.918;7.092;2023-10-09T10:51:40;8.83;;;4.50;;
81841;SDS011;71284;50.918;7.092;2023-10-09T10:54:07;9.47;;;5.27;;
81841;SDS011;71284;50.918;7.092;2023-10-09T10:56:39;9.67;;;4.83;;
81841;SDS011;71284;50.918;7.092;2023-10-09T10:59:06;7.20;;;4.50;;
81841;SDS011;71284;50.918;7.092;2023-10-09T11:01:43;8.03;;;3.70;;
81841;SDS011;71284;50.918;7.092;2023-10-09T11:04:16;5.10;;;3.63;;
81841;SDS011;71284;50.918;7.092;2023-10-09T11:07:04;4.43;;;4.03;;
81841;SDS011;71284;50.918;7.092;2023-10-09T11:12:08;9.33;;;4.00;;
81841;SDS011;71284;50.918;7.092;2023-10-09T11:14:45;5.13;;;4.63;;
81841;SDS011;71284;50.918;7.092;2023-10-09T11:17:16;4.53;;;3.90;;
81841;SDS011;71284;50.918;7.092;2023-10-09T11:19:41;5.40;;;3.90;;
81841;SDS011;71284;50.918;7.092;2023-10-09T11:22:08;8.63;;;4.03;;
81841;SDS011;71284;50.918;7.092;2023-10-09T11:24:49;12.20;;;4.80;;
81841;SDS011;71284;50.918;7.092;2023-10-09T11:27:30;8.37;;;5.03;;
81841;SDS011;71284;50.918;7.092;2023-10-09T11:29:57;4.23;;;3.17;;
81841;SDS011;71284;50.918;7.092;2023-10-09T11:32:23;9.50;;;5.03;;
81841;SDS011;71284;50.918;7.092;2023-10-09T11:34:51;4.33;;;4.00;;
81841;SDS011;71284;50.918;7.092;2023-10-09T11:37:18;3.87;;;3.57;;
81841;SDS011;71284;50.918;7.092;2023-10-09T11:40:02;12.20;;;4.60;;
81841;SDS011;71284;50.918;7.092;2023-10-09T11:42:29;10.27;;;4.20;;
81841;SDS011;71284;50.918;7.092;2023-10-09T11:45:02;7.90;;;3.77;;
81841;SDS011;71284;50.918;7.092;2023-10-09T11:47:46;6.50;;;4.20;;
81841;SDS011;71284;50.918;7.092;2023-10-09T11:53:08;4.60;;;2.63;;
81841;SDS011;71284;50.918;7.092;2023-10-09T11:55:35;6.97;;;3.17;;
81841;SDS011;71284;50.918;7.092;2023-10-09T11:58:01;9.97;;;3.13;;
81841;SDS011;71284;50.918;7.092;2023-10-09T12:00:28;5.10;;;3.23;;
81841;SDS011;71284;50.918;7.092;2023-10-09T12:02:55;8.70;;;3.13;;
81841;SDS011;71284;50.918;7.092;2023-10-09T12:05:22;7.33;;;3.07;;
81841;SDS011;71284;50.918;7.092;2023-10-09T12:07:48;5.90;;;3.30;;
81841;SDS011;71284;50.918;7.092;2023-10-09T12:10:19;6.27;;;3.43;;
81841;SDS011;71284;50.918;7.092;2023-10-09T12:12:45;7.80;;;4.40;;
81841;SDS011;71284;50.918;7.092;2023-10-09T12:15:12;3.37;;;3.07;;
81841;SDS011;71284;50.918;7.092;2023-10-09T12:17:38;7.37;;;3.50;;
81841;SDS011;71284;50.918;7.092;2023-10-09T12:20:05;4.50;;;3.10;;
81841;SDS011;71284;50.918;7.092;2023-10-09T12:22:33;4.80;;;3.20;;
81841;SDS011;71284;50.918;7.092;2023-10-09T12:24:59;5.07;;;3.60;;
81841;SDS011;71284;50.918;7.092;2023-10-09T12:27:26;5.00;;;2.77;;
81841;SDS011;71284;50.918;7.092;2023-10-09T12:29:52;5.83;;;3.20;;
81841;SDS011;71284;50.918;7.092;2023-10-09T12:32:19;4.97;;;3.50;;
81841;SDS011;71284;50.918;7.092;2023-10-09T12:34:45;5.53;;;3.50;;
81841;SDS011;71284;50.918;7.092;2023-10-09T12:37:12;4.30;;;2.83;;
81841;SDS011;71284;50.918;7.092;2023-10-09T12:39:39;7.63;;;3.90;;
81841;SDS011;71284;50.918;7.092;2023-10-09T12:42:06;6.37;;;3.23;;
81841;SDS011;71284;50.918;7.092;2023-10-09T12:44:33;3.63;;;3.33;;
81841;SDS011;71284;50.918;7.092;2023-10-09T12:47:00;3.47;;;2.93;;
81841;SDS011;71284;50.918;7.092;2023-10-09T12:49:27;3.20;;;2.90;;
81841;SDS011;71284;50.918;7.092;2023-10-09T12:51:53;6.87;;;4.40;;
81841;SDS011;71284;50.918;7.092;2023-10-09T12:54:20;5.43;;;3.60;;
81841;SDS011;71284;50.918;7.092;2023-10-09T12:56:47;5.23;;;3.50;;
81841;SDS011;71284;50.918;7.092;2023-10-09T12:59:14;3.93;;;3.33;;
81841;SDS011;71284;50.918;7.092;2023-10-09T13:01:41;5.50;;;4.20;;
81841;SDS011;71284;50.918;7.092;2023-10-09T13:04:09;4.20;;;3.80;;
81841;SDS011;71284;50.918;7.092;2023-10-09T13:06:35;7.23;;;4.00;;
81841;SDS011;71284;50.918;7.092;2023-10-09T13:09:02;18.50;;;4.57;;
81841;SDS011;71284;50.918;7.092;2023-10-09T13:11:29;5.07;;;4.40;;
81841;SDS011;71284;50.918;7.092;2023-10-09T13:13:56;10.80;;;4.37;;
81841;SDS011;71284;50.918;7.092;2023-10-09T13:16:23;12.13;;;4.47;;
81841;SDS011;71284;50.918;7.092;2023-10-09T13:18:50;3.20;;;2.87;;
81841;SDS011;71284;50.918;7.092;2023-10-09T13:21:17;5.23;;;3.40;;
81841;SDS011;71284;50.918;7.092;2023-10-09T13:23:45;3.87;;;3.30;;
81841;SDS011;71284;50.918;7.092;2023-10-09T13:26:13;8.27;;;3.87;;
81841;SDS011;71284;50.918;7.092;2023-10-09T13:28:45;12.70;;;4.17;;
81841;SDS011;71284;50.918;7.092;2023-10-09T13:31:11;4.27;;;3.57;;
81841;SDS011;71284;50.918;7.092;2023-10-09T13:33:37;11.70;;;3.57;;
81841;SDS011;71284;50.918;7.092;2023-10-09T13:36:04;6.30;;;3.80;;
81841;SDS011;71284;50.918;7.092;2023-10-09T13:38:31;6.10;;;3.27;;
81841;SDS011;71284;50.918;7.092;2023-10-09T13:40:58;9.00;;;3.90;;
81841;SDS011;71284;50.918;7.092;2023-10-09T13:43:27;5.40;;;3.00;;
81841;SDS011;71284;50.918;7.092;2023-10-09T13:45:53;6.40;;;4.23;;
81841;SDS011;71284;50.918;7.092;2023-10-09T13:48:20;4.47;;;2.50;;
81841;SDS011;71284;50.918;7.092;2023-10-09T13:50:46;8.83;;;4.20;;
81841;SDS011;71284;50.918;7.092;2023-10-09T13:53:13;7.60;;;3.60;;
81841;SDS011;71284;50.918;7.092;2023-10-09T13:55:40;9.57;;;4.57;;
81841;SDS011;71284;50.918;7.092;2023-10-09T13:58:06;8.00;;;4.20;;
81841;SDS011;71284;50.918;7.092;2023-10-09T14:00:33;5.93;;;4.43;;
81841;SDS011;71284;50.918;7.092;2023-10-09T14:03:00;8.60;;;4.13;;
81841;SDS011;71284;50.918;7.092;2023-10-09T14:05:27;4.93;;;3.57;;
81841;SDS011;71284;50.918;7.092;2023-10-09T14:07:53;4.97;;;2.90;;
81841;SDS011;71284;50.918;7.092;2023-10-09T14:10:20;15.03;;;4.97;;
81841;SDS011;71284;50.918;7.092;2023-10-09T14:12:47;6.10;;;3.30;;
81841;SDS011;71284;50.918;7.092;2023-10-09T14:15:13;5.60;;;3.57;;
81841;SDS011;71284;50.918;7.092;2023-10-09T14:17:40;4.70;;;3.40;;
81841;SDS011;71284;50.918;7.092;2023-10-09T14:20:07;14.57;;;3.50;;
81841;SDS011;71284;50.918;7.092;2023-10-09T14:22:51;11.03;;;4.40;;
81841;SDS011;71284;50.918;7.092;2023-10-09T14:25:18;8.40;;;4.47;;
81841;SDS011;71284;50.918;7.092;2023-10-09T14:27:44;6.13;;;4.93;;
81841;SDS011;71284;50.918;7.092;2023-10-09T14:30:11;10.40;;;4.67;;
81841;SDS011;71284;50.918;7.092;2023-10-09T14:32:38;5.60;;;4.37;;
81841;SDS011;71284;50.918;7.092;2023-10-09T14:35:04;7.03;;;3.50;;
81841;SDS011;71284;50.918;7.092;2023-10-09T14:37:31;6.70;;;4.27;;
81841;SDS011;71284;50.918;7.092;2023-10-09T14:39:58;6.50;;;3.83;;
81841;SDS011;71284;50.918;7.092;2023-10-09T14:42:25;6.27;;;3.17;;
81841;SDS011;71284;50.918;7.092;2023-10-09T14:44:51;5.30;;;3.60;;
81841;SDS011;71284;50.918;7.092;2023-10-09T14:47:18;5.57;;;3.50;;
81841;SDS011;71284;50.918;7.092;2023-10-09T14:49:46;6.30;;;4.00;;
81841;SDS011;71284;50.918;7.092;2023-10-09T14:52:13;6.40;;;4.23;;
81841;SDS011;71284;50.918;7.092;2023-10-09T14:54:42;10.33;;;4.13;;
81841;SDS011;71284;50.918;7.092;2023-10-09T14:57:08;10.73;;;4.33;;
81841;SDS011;71284;50.918;7.092;2023-10-09T14:59:35;6.57;;;4.57;;
81841;SDS011;71284;50.918;7.092;2023-10-09T15:02:02;10.40;;;4.43;;
81841;SDS011;71284;50.918;7.092;2023-10-09T15:04:28;10.40;;;4.40;;